Time;durP1;ratioP1;P1;durP2;ratioP2;P2;SDS_P1;SDS_P2;PMS_P1;PMS_P2;Temp;Humidity;BMP_temperature;BMP_pressure;BME280_temperature;BME280_humidity;BME280_pressure;Samples;Min_cycle;Max_cycle;Signal;HPM_P1;HPM_P2
2022/01/20 00:01:46;;;;;;;133.47;16.10;;;;;;;;;;5027131;28;20207;-50
2022/01/20 00:05:08;;;;;;;135.97;16.47;;;;;;;;;;5022875;28;20203;-50
2022/01/20 00:23:13;;;;;;;90.33;11.10;;;;;;;;;;5025772;28;20272;-51
2022/01/20 00:26:07;;;;;;;95.73;11.77;;;;;;;;;;5008976;28;20192;-50
2022/01/20 00:28:48;;;;;;;75.97;9.33;;;3.60;99.90;;;;;;5023441;28;20198;-50
2022/01/20 00:34:10;;;;;;;77.60;9.60;;;;;;;;;;5021010;28;20226;-50
2022/01/20 00:39:02;;;;;;;133.83;16.33;;;;;;;;;;5029871;28;20192;-51
2022/01/20 00:41:28;;;;;;;91.53;11.23;;;;;;;;;;5023737;28;20216;-51
2022/01/20 00:43:54;;;;;;;82.57;10.20;;;;;;;;;;5030858;28;20474;-51
2022/01/20 00:46:20;;;;;;;147.93;17.77;;;;;;;;;;5027491;28;20176;-50
2022/01/20 00:48:46;;;;;;;104.10;12.70;;;3.70;99.90;;;;;;5027086;28;20188;-51
2022/01/20 00:51:11;;;;;;;105.47;12.93;;;4.80;99.90;;;;;;5020109;28;20183;-50
2022/01/20 00:53:39;;;;;;;70.63;8.70;;;3.70;99.90;;;;;;5024642;28;20702;-50
2022/01/20 00:56:05;;;;;;;89.07;10.87;;;;;;;;;;5023599;28;20183;-50
2022/01/20 00:58:30;;;;;;;136.97;16.23;;;3.60;99.90;;;;;;5022852;28;20192;-50
2022/01/20 01:00:56;;;;;;;114.90;14.13;;;3.60;99.90;;;;;;5016911;28;20685;-51
2022/01/20 01:03:21;;;;;;;136.90;16.60;;;3.50;99.90;;;;;;5025374;28;20208;-50
2022/01/20 01:06:15;;;;;;;106.67;13.30;;;3.70;99.90;;;;;;5025323;28;20218;-50
2022/01/20 01:08:43;;;;;;;106.93;13.07;;;3.60;99.90;;;;;;5021343;28;20192;-51
2022/01/20 01:11:09;;;;;;;121.13;14.77;;;;;;;;;;5022616;28;20195;-50
2022/01/20 01:13:35;;;;;;;113.07;13.73;;;4.00;99.90;;;;;;5023561;28;20210;-51
2022/01/20 01:16:01;;;;;;;97.47;11.87;;;;;;;;;;5025414;28;20189;-51
2022/01/20 01:21:27;;;;;;;96.67;11.80;;;;;;;;;;5025338;28;20261;-51
2022/01/20 01:23:52;;;;;;;119.60;14.63;;;2.60;99.90;;;;;;5020772;28;20483;-51
2022/01/20 01:26:20;;;;;;;61.63;7.77;;;2.50;99.90;;;;;;5022159;28;20298;-51
2022/01/20 01:28:46;;;;;;;76.50;9.77;;;3.50;99.90;;;;;;5032325;28;20250;-50
2022/01/20 01:33:51;;;;;;;85.37;10.90;;;3.00;99.90;;;;;;5022364;28;20211;-51
2022/01/20 01:36:21;;;;;;;91.87;11.40;;;3.80;99.90;;;;;;5027012;28;20267;-51
2022/01/20 01:38:47;;;;;;;65.03;8.20;;;3.70;99.90;;;;;;5029533;28;20663;-51
2022/01/20 01:41:17;;;;;;;123.83;15.07;;;4.10;99.90;;;;;;5022289;28;20215;-51
2022/01/20 01:43:48;;;;;;;86.50;10.43;;;3.70;99.90;;;;;;5025981;28;20818;-51
2022/01/20 01:46:15;;;;;;;138.37;16.77;;;3.80;99.90;;;;;;5025684;28;20188;-50
2022/01/20 01:48:43;;;;;;;101.13;12.40;;;;;;;;;;5023153;28;20188;-50
2022/01/20 01:51:10;;;;;;;113.00;13.60;;;;;;;;;;5026764;28;20196;-51
2022/01/20 01:53:38;;;;;;;87.37;10.93;;;3.30;99.90;;;;;;5019505;28;20207;-50
2022/01/20 01:56:04;;;;;;;131.27;15.43;;;;;;;;;;5016867;28;20184;-50
2022/01/20 01:58:31;;;;;;;105.57;12.87;;;;;;;;;;5026834;28;20187;-49
2022/01/20 02:00:57;;;;;;;55.93;7.33;;;;;;;;;;5027142;28;20217;-50
2022/01/20 02:03:24;;;;;;;154.60;18.90;;;3.10;99.90;;;;;;5026285;28;20200;-50
2022/01/20 02:08:34;;;;;;;93.33;11.50;;;;;;;;;;5025963;28;20196;-50
2022/01/20 02:19:16;;;;;;;104.47;12.73;;;;;;;;;;5021951;28;20861;-50
2022/01/20 02:21:46;;;;;;;86.80;10.57;;;;;;;;;;5021774;28;20225;-50
2022/01/20 02:24:12;;;;;;;225.33;26.67;;;3.70;99.90;;;;;;5013927;28;20582;-50
2022/01/20 02:26:38;;;;;;;78.27;9.87;;;;;;;;;;5022343;28;20184;-51
2022/01/20 02:29:05;;;;;;;138.27;17.23;;;3.70;99.90;;;;;;5027852;28;20573;-50
2022/01/20 02:31:31;;;;;;;99.33;12.10;;;;;;;;;;5023282;28;20567;-51
2022/01/20 02:33:58;;;;;;;134.40;16.47;;;;;;;;;;5023031;28;20462;-50
2022/01/20 02:36:24;;;;;;;88.33;10.97;;;;;;;;;;5016666;28;20723;-50
2022/01/20 02:39:07;;;;;;;119.73;14.63;;;;;;;;;;5024844;28;20192;-50
2022/01/20 02:47:12;;;;;;;140.33;16.77;;;;;;;;;;5020197;28;20657;-50
2022/01/20 02:49:38;;;;;;;115.83;13.93;;;;;;;;;;5016446;28;20441;-50
2022/01/20 02:52:06;;;;;;;76.50;9.40;;;;;;;;;;5020077;28;20797;-50
2022/01/20 02:54:32;;;;;;;83.37;10.23;;;;;;;;;;5023201;28;20215;-50
2022/01/20 02:56:57;;;;;;;116.37;13.90;;;;;;;;;;5028389;28;20187;-50
2022/01/20 02:59:23;;;;;;;63.67;8.27;;;;;;;;;;5025399;28;20187;-50
2022/01/20 03:01:49;;;;;;;68.50;8.40;;;;;;;;;;5023433;28;20493;-49
2022/01/20 03:04:15;;;;;;;123.77;15.23;;;3.30;99.90;;;;;;5021460;28;20362;-51
2022/01/20 03:06:41;;;;;;;114.63;14.07;;;;;;;;;;5028316;28;20703;-50
2022/01/20 03:09:07;;;;;;;135.27;16.47;;;3.50;99.90;;;;;;5019204;28;20184;-50
2022/01/20 03:11:33;;;;;;;67.87;8.90;;;;;;;;;;5020976;28;20623;-51
2022/01/20 03:13:59;;;;;;;99.20;12.47;;;3.10;99.90;;;;;;5021759;28;21176;-51
2022/01/20 03:16:25;;;;;;;88.40;11.20;;;;;;;;;;5023863;28;20188;-50
2022/01/20 03:18:51;;;;;;;131.80;16.13;;;;;;;;;;5020936;28;20188;-50
2022/01/20 03:21:17;;;;;;;82.03;10.37;;;;;;;;;;5029202;28;22417;-51
2022/01/20 03:23:43;;;;;;;95.57;11.93;;;;;;;;;;5028539;28;20668;-51
2022/01/20 03:26:09;;;;;;;118.97;14.77;;;;;;;;;;5020417;28;20180;-50
2022/01/20 03:28:35;;;;;;;104.93;12.90;;;;;;;;;;5022796;28;20211;-50
2022/01/20 03:31:01;;;;;;;82.07;10.40;;;;;;;;;;5027062;28;20199;-51
2022/01/20 03:33:27;;;;;;;119.80;15.20;;;;;;;;;;5024245;28;20743;-50
2022/01/20 03:35:53;;;;;;;98.30;12.13;;;;;;;;;;5028681;28;20649;-50
2022/01/20 03:38:20;;;;;;;121.97;14.53;;;2.90;99.90;;;;;;5027197;28;20342;-51
2022/01/20 03:40:46;;;;;;;62.43;8.13;;;;;;;;;;5017962;28;20645;-50
2022/01/20 03:43:12;;;;;;;116.47;14.30;;;;;;;;;;5018467;28;20660;-50
2022/01/20 03:45:38;;;;;;;145.03;17.63;;;;;;;;;;5026747;28;20264;-50
2022/01/20 03:48:11;;;;;;;109.73;13.53;;;;;;;;;;5020983;28;20192;-50
2022/01/20 03:53:22;;;;;;;146.77;17.67;;;;;;;;;;5024626;28;20570;-50
2022/01/20 03:55:49;;;;;;;161.63;19.57;;;3.30;99.90;;;;;;5013577;28;20690;-51
2022/01/20 03:58:15;;;;;;;67.77;8.97;;;2.80;99.90;;;;;;5022053;28;20912;-50
2022/01/20 04:00:43;;;;;;;71.63;9.10;;;2.90;99.90;;;;;;5018239;28;20257;-51
2022/01/20 04:03:09;;;;;;;146.30;17.97;;;;;;;;;;5018352;28;20692;-50
2022/01/20 04:05:39;;;;;;;92.50;11.67;;;;;;;;;;5022283;28;20311;-50
2022/01/20 04:08:06;;;;;;;137.17;17.10;;;;;;;;;;5020186;28;20278;-50
2022/01/20 04:10:32;;;;;;;104.10;12.97;;;;;;;;;;5013981;28;20203;-50
2022/01/20 04:12:58;;;;;;;81.53;10.27;;;;;;;;;;5027846;28;20200;-50
2022/01/20 04:15:28;;;;;;;120.97;15.03;;;3.00;99.90;;;;;;5021004;28;20634;-50
2022/01/20 04:18:00;;;;;;;96.87;12.10;;;;;;;;;;5022830;28;20176;-51
2022/01/20 04:20:26;;;;;;;116.50;14.63;;;;;;;;;;5021117;28;20199;-50
2022/01/20 04:22:52;;;;;;;96.27;12.13;;;;;;;;;;5021376;28;20210;-50
2022/01/20 04:25:18;;;;;;;122.80;15.00;;;;;;;;;;5015359;28;20182;-50
2022/01/20 04:27:44;;;;;;;100.13;12.37;;;;;;;;;;5020797;28;20180;-50
2022/01/20 04:30:10;;;;;;;119.93;19.13;;;;;;;;;;5025988;23;20468;-49
2022/01/20 04:32:36;;;;;;;190.00;28.47;;;;;;;;;;5007918;28;20584;-48
2022/01/20 04:35:02;;;;;;;175.00;26.50;;;;;;;;;;5012935;28;20210;-48
2022/01/20 04:37:28;;;;;;;110.63;17.63;;;2.40;99.90;;;;;;5023191;28;20223;-49
2022/01/20 04:39:55;;;;;;;169.47;25.63;;;2.20;99.90;;;;;;5017720;28;20211;-49
2022/01/20 04:42:22;;;;;;;92.10;15.47;;;1.90;99.90;;;;;;5017412;28;20173;-49
2022/01/20 04:45:00;;;;;;;82.00;13.40;;;;;;;;;;5025850;28;20644;-49
2022/01/20 04:47:35;;;;;;;129.27;19.90;;;;;;;;;;5024238;28;20265;-49
2022/01/20 04:58:15;;;;;;;129.20;21.90;;;;;;;;;;5022792;28;20277;-49
2022/01/20 05:00:41;;;;;;;103.47;18.27;;;1.90;99.90;;;;;;5024548;28;20658;-49
2022/01/20 05:03:07;;;;;;;160.87;25.00;;;;;;;;;;5028872;28;20855;-48
2022/01/20 05:05:33;;;;;;;145.93;23.17;;;;;;;;;;5019094;28;20203;-48
2022/01/20 05:07:59;;;;;;;166.80;25.20;;;;;;;;;;5019668;28;21243;-48
2022/01/20 05:10:27;;;;;;;150.33;22.97;;;0.80;99.90;;;;;;5019295;28;20226;-48
2022/01/20 05:15:20;;;;;;;127.73;19.90;;;;;;;;;;5021171;28;20191;-49
2022/01/20 05:17:46;;;;;;;154.83;24.10;;;;;;;;;;5021789;28;20183;-49
2022/01/20 05:20:12;;;;;;;181.17;28.23;;;;;;;;;;5017898;28;20187;-48
2022/01/20 05:22:38;;;;;;;140.43;22.20;;;;;;;;;;5019666;28;20180;-48
2022/01/20 05:25:05;;;;;;;188.90;27.07;;;;;;;;;;5012613;28;20180;-48
2022/01/20 05:27:31;;;;;;;146.40;21.50;;;;;;;;;;5016260;28;20184;-49
2022/01/20 05:29:57;;;;;;;114.33;18.20;;;;;;;;;;5028571;28;20277;-49
2022/01/20 05:32:23;;;;;;;153.70;23.50;;;;;;;;;;5019195;28;20313;-49
2022/01/20 05:34:49;;;;;;;144.77;22.93;;;;;;;;;;5022099;28;20373;-48
2022/01/20 05:37:15;;;;;;;182.60;27.50;;;;;;;;;;5016749;28;20183;-49
2022/01/20 05:39:41;;;;;;;185.77;27.27;;;;;;;;;;5020876;28;20314;-48
2022/01/20 05:42:08;;;;;;;201.03;28.73;;;;;;;;;;5015252;28;20207;-49
2022/01/20 05:44:34;;;;;;;128.20;21.03;;;;;;;;;;5014184;28;20253;-49
2022/01/20 05:47:05;;;;;;;192.37;28.00;;;;;;;;;;5020928;28;20238;-48
2022/01/20 05:49:31;;;;;;;125.87;19.50;;;;;;;;;;5021868;28;20395;-49
2022/01/20 05:51:57;;;;;;;115.00;18.37;;;;;;;;;;5023885;28;20187;-49
2022/01/20 05:54:24;;;;;;;119.70;18.70;;;;;;;;;;5020002;28;20215;-48
2022/01/20 05:56:50;;;;;;;142.23;21.67;;;;;;;;;;5019268;28;20421;-49
2022/01/20 05:59:16;;;;;;;186.17;27.27;;;;;;;;;;5017457;28;20195;-49
2022/01/20 06:01:45;;;;;;;101.67;17.47;;;;;;;;;;5024978;28;20215;-49
2022/01/20 06:04:11;;;;;;;98.50;16.57;;;;;;;;;;5028688;28;20349;-49
2022/01/20 06:06:37;;;;;;;139.47;21.60;;;;;;;;;;5012677;28;20718;-48
2022/01/20 06:09:04;;;;;;;204.83;29.57;;;;;;;;;;5015869;28;20394;-49
2022/01/20 06:11:31;;;;;;;139.40;20.97;;;;;;;;;;5022389;28;20202;-49
2022/01/20 06:13:57;;;;;;;147.60;22.83;;;;;;;;;;5014378;28;20207;-49
2022/01/20 06:16:23;;;;;;;164.90;24.47;;;;;;;;;;5015759;28;20206;-48
2022/01/20 06:18:49;;;;;;;149.03;23.57;;;;;;;;;;5018329;28;20660;-49
2022/01/20 06:21:15;;;;;;;142.83;23.07;;;;;;;;;;5019142;28;20574;-48
2022/01/20 06:23:41;;;;;;;185.77;28.03;;;;;;;;;;5017001;28;20579;-51
2022/01/20 06:26:07;;;;;;;154.30;23.03;;;;;;;;;;5009769;28;20187;-49
2022/01/20 06:28:34;;;;;;;180.40;25.40;;;;;;;;;;5020042;28;20274;-48
2022/01/20 06:30:59;;;;;;;114.67;18.30;;;;;;;;;;5020144;28;20203;-49
2022/01/20 06:33:25;;;;;;;183.67;26.83;;;;;;;;;;5021977;28;20210;-48
2022/01/20 06:35:51;;;;;;;185.33;26.93;;;;;;;;;;5007733;28;20532;-48
2022/01/20 06:38:18;;;;;;;156.77;23.43;;;;;;;;;;5018828;28;20187;-49
2022/01/20 06:40:44;;;;;;;107.40;17.57;;;;;;;;;;5015796;28;22156;-49
2022/01/20 06:43:10;;;;;;;196.13;27.63;;;;;;;;;;5014875;28;20223;-49
2022/01/20 06:45:36;;;;;;;133.37;20.83;;;;;;;;;;5019847;28;20426;-48
2022/01/20 06:48:02;;;;;;;165.90;24.77;;;;;;;;;;5015200;28;20219;-48
2022/01/20 06:50:28;;;;;;;141.80;21.63;;;;;;;;;;5020523;28;20196;-48
2022/01/20 06:52:55;;;;;;;138.97;21.33;;;;;;;;;;5020733;28;20213;-48
2022/01/20 06:55:21;;;;;;;312.63;42.27;;;;;;;;;;5006792;28;20294;-48
2022/01/20 06:57:47;;;;;;;171.20;24.70;;;;;;;;;;4997802;28;20273;-48
2022/01/20 07:00:17;;;;;;;173.50;24.47;;;;;;;;;;5017568;28;20772;-48
2022/01/20 07:02:44;;;;;;;195.80;28.60;;;;;;;;;;5019153;28;20659;-48
2022/01/20 07:05:11;;;;;;;288.67;39.60;;;;;;;;;;5008424;28;20188;-48
2022/01/20 07:07:38;;;;;;;205.53;29.33;;;;;;;;;;5010275;28;20232;-48
2022/01/20 07:10:04;;;;;;;358.13;48.07;;;;;;;;;;5003286;28;23953;-47
2022/01/20 07:12:30;;;;;;;366.97;50.53;;;;;;;;;;5000115;28;20269;-47
2022/01/20 07:14:56;;;;;;;174.67;24.50;;;;;;;;;;5003212;28;20200;-47
2022/01/20 07:17:22;;;;;;;199.13;27.57;;;;;;;;;;5008899;28;20181;-47
2022/01/20 07:19:48;;;;;;;174.93;24.17;;;;;;;;;;5010191;28;20302;-47
2022/01/20 07:22:15;;;;;;;211.67;30.43;;;;;;;;;;5005416;28;20301;-48
2022/01/20 07:24:41;;;;;;;356.47;48.87;;;;;;;;;;4995073;28;20219;-48
2022/01/20 07:27:08;;;;;;;207.83;29.50;;;;;;;;;;5008640;28;20191;-48
2022/01/20 07:29:34;;;;;;;195.30;27.90;;;;;;;;;;5016855;28;20207;-48
2022/01/20 07:32:02;;;;;;;224.33;31.23;;;;;;;;;;5022163;28;20206;-47
2022/01/20 07:34:28;;;;;;;269.77;36.93;;;;;;;;;;5012083;28;20215;-47
2022/01/20 07:36:54;;;;;;;133.37;21.07;;;;;;;;;;5020328;28;20184;-47
2022/01/20 07:39:20;;;;;;;349.07;47.20;;;;;;;;;;5009031;28;20192;-47
2022/01/20 07:41:46;;;;;;;165.67;24.13;;;;;;;;;;5014332;28;20204;-47
2022/01/20 07:44:14;;;;;;;120.77;18.43;;;;;;;;;;5025059;28;20233;-47
2022/01/20 07:46:40;;;;;;;166.43;24.50;;;;;;;;;;5016496;28;20278;-48
2022/01/20 07:49:06;;;;;;;108.70;17.70;;;;;;;;;;5023972;28;20302;-48
2022/01/20 07:51:32;;;;;;;118.87;19.07;;;;;;;;;;5031989;28;20718;-48
2022/01/20 07:53:58;;;;;;;160.83;22.97;;;;;;;;;;5019623;28;20215;-48
2022/01/20 07:56:24;;;;;;;140.10;21.27;;;;;;;;;;5023679;28;20183;-48
2022/01/20 07:58:50;;;;;;;132.17;20.33;;;;;;;;;;5030775;28;20624;-48
2022/01/20 08:01:17;;;;;;;122.43;19.27;;;;;;;;;;5025456;28;20206;-48
2022/01/20 08:03:43;;;;;;;89.00;14.23;;;;;;;;;;5012591;28;20227;-48
2022/01/20 08:06:08;;;;;;;165.93;22.77;;;;;;;;;;5022759;28;20612;-47
2022/01/20 08:08:34;;;;;;;132.27;19.67;;;;;;;;;;5005058;28;20229;-47
2022/01/20 08:11:00;;;;;;;175.03;26.10;;;;;;;;;;5013346;28;20685;-48
2022/01/20 08:13:26;;;;;;;215.00;31.57;;;;;;;;;;5024609;28;20210;-48
2022/01/20 08:15:52;;;;;;;189.10;28.37;;;;;;;;;;5023504;28;22172;-47
2022/01/20 08:18:18;;;;;;;130.97;20.90;;;;;;;;;;5023912;28;20590;-49
2022/01/20 08:20:44;;;;;;;174.93;28.73;;;;;;;;;;5014149;28;20354;-48
2022/01/20 08:23:10;;;;;;;148.97;23.40;;;;;;;;;;5018812;28;20265;-48
2022/01/20 08:25:36;;;;;;;278.93;41.37;;;;;;;;;;5016381;28;22530;-48
2022/01/20 08:28:02;;;;;;;121.97;20.43;;;;;;;;;;5015780;28;20659;-48
2022/01/20 08:30:28;;;;;;;186.63;28.20;;;;;;;;;;5025471;28;20207;-47
2022/01/20 08:32:54;;;;;;;175.17;27.17;;;;;;;;;;5025399;28;20230;-48
2022/01/20 08:35:21;;;;;;;115.57;20.03;;;;;;;;;;5022209;28;20203;-48
2022/01/20 08:37:47;;;;;;;184.87;28.40;;;;;;;;;;5027247;28;20184;-48
2022/01/20 08:40:18;;;;;;;136.37;22.63;;;;;;;;;;5014369;28;20223;-48
2022/01/20 08:42:46;;;;;;;145.77;26.93;;;;;;;;;;5010130;28;20211;-48
2022/01/20 08:45:13;;;;;;;201.47;33.63;;;;;;;;;;5013769;28;20187;-48
2022/01/20 08:47:39;;;;;;;281.10;41.40;;;;;;;;;;5021138;28;20199;-48
2022/01/20 08:50:07;;;;;;;245.47;36.97;;;;;;;;;;5008406;28;20195;-48
2022/01/20 08:52:33;;;;;;;140.53;20.90;;;;;;;;;;5019709;28;20626;-48
2022/01/20 08:54:59;;;;;;;227.57;31.47;;;;;;;;;;5020990;28;20191;-48
2022/01/20 08:57:25;;;;;;;120.27;18.13;;;;;;;;;;5018038;28;20273;-48
2022/01/20 08:59:52;;;;;;;166.27;23.43;;;;;;;;;;5021107;28;20267;-47
2022/01/20 09:02:18;;;;;;;162.33;24.07;;;;;;;;;;5017061;28;20646;-47
2022/01/20 09:04:44;;;;;;;169.00;23.40;;;;;;;;;;5021553;28;20204;-48
2022/01/20 09:07:10;;;;;;;137.87;20.43;;;;;;;;;;5019206;28;20643;-48
2022/01/20 09:09:41;;;;;;;186.10;26.17;;;;;;;;;;5018298;28;20183;-48
2022/01/20 09:17:22;;;;;;;132.10;19.50;;;;;;;;;;5014809;28;20295;-48
2022/01/20 09:19:48;;;;;;;116.83;17.37;;;;;;;;;;5026347;28;20266;-47
2022/01/20 09:22:14;;;;;;;125.07;18.10;;;;;;;;;;5030178;28;20239;-47
2022/01/20 09:24:42;;;;;;;180.83;24.93;;;;;;;;;;5014535;28;20204;-48
2022/01/20 09:27:08;;;;;;;101.57;16.47;;;;;;;;;;5023113;28;20314;-48
2022/01/20 09:29:34;;;;;;;320.90;43.63;;;;;;;;;;5010193;28;20184;-48
2022/01/20 09:32:02;;;;;;;116.90;18.37;;;;;;;;;;5024568;28;20230;-47
2022/01/20 09:34:28;;;;;;;100.93;16.23;;;;;;;;;;5020133;28;20195;-48
2022/01/20 09:36:54;;;;;;;149.77;22.43;;;;;;;;;;5021100;28;20188;-48
2022/01/20 09:39:20;;;;;;;145.07;21.63;;;;;;;;;;5024380;28;20199;-47
2022/01/20 09:41:47;;;;;;;179.93;25.67;;;;;;;;;;5017189;28;20243;-47
2022/01/20 09:44:13;;;;;;;120.20;18.60;;;;;;;;;;5028245;28;20214;-48
2022/01/20 09:46:39;;;;;;;146.50;21.77;;;;;;;;;;5019644;28;20547;-47
2022/01/20 09:49:05;;;;;;;141.33;21.17;;;;;;;;;;5023629;28;20237;-48
2022/01/20 09:51:32;;;;;;;120.10;18.77;;;;;;;;;;5028517;28;20610;-48
2022/01/20 09:53:58;;;;;;;204.03;28.30;;;;;;;;;;5010214;28;20215;-48
2022/01/20 09:56:24;;;;;;;114.90;17.37;;;;;;;;;;5021841;28;20265;-48
2022/01/20 09:58:50;;;;;;;202.50;29.10;;;;;;;;;;5015264;28;20571;-48
2022/01/20 10:01:33;;;;;;;143.57;21.97;;;;;;;;;;5016810;28;20225;-48
2022/01/20 10:03:59;;;;;;;112.23;17.40;;;;;;;;;;5008628;28;20203;-48
2022/01/20 10:06:25;;;;;;;95.47;14.97;;;;;;;;;;5026641;28;20255;-48
2022/01/20 10:08:58;;;;;;;105.10;16.07;;;;;;;;;;5026073;28;20663;-48
2022/01/20 10:11:24;;;;;;;139.90;21.23;;;;;;;;;;5020344;28;20240;-48
2022/01/20 10:13:50;;;;;;;228.63;32.07;;;;;;;;;;5012594;28;20705;-48
2022/01/20 10:16:16;;;;;;;99.00;16.17;;;;;;;;;;5021855;28;20533;-48
2022/01/20 10:18:50;;;;;;;141.57;20.73;;;;;;;;;;5022748;28;20188;-48
2022/01/20 10:21:16;;;;;;;148.67;21.47;;;;;;;;;;5027403;28;20211;-48
2022/01/20 10:23:43;;;;;;;191.40;27.83;;;;;;;;;;5014054;28;20204;-47
2022/01/20 10:26:14;;;;;;;116.33;18.20;;;;;;;;;;5015038;28;20254;-48
2022/01/20 10:28:52;;;;;;;171.37;25.27;;;;;;;;;;5012498;28;20728;-48
2022/01/20 10:31:19;;;;;;;97.80;11.10;;;;;;;;;;5050382;22;20246;-73
2022/01/20 10:33:46;;;;;;;43.50;5.53;;;;;;;;;;5035352;28;20227;-72
2022/01/20 10:36:12;;;;;;;97.57;11.30;;;;;;;;;;5035617;28;20805;-72
2022/01/20 10:38:48;;;;;;;108.97;12.00;;;;;;;;;;5039365;28;20266;-75
2022/01/20 10:41:26;;;;;;;52.13;6.23;;;;;;;;;;5031755;28;20288;-74
2022/01/20 10:43:59;;;;;;;120.60;13.50;;;;;;;;;;5031455;28;20254;-79
2022/01/20 10:46:25;;;;;;;94.80;10.80;;;;;;;;;;5034857;28;20564;-79
2022/01/20 10:49:00;;;;;;;64.90;7.73;;;;;;;;;;5033979;28;20184;-77
2022/01/20 10:51:26;;;;;;;47.03;5.77;;;;;;;;;;5039008;28;20207;-76
2022/01/20 10:54:03;;;;;;;79.70;9.30;;;;;;;;;;5039167;28;20183;-75
2022/01/20 10:56:29;;;;;;;42.30;5.20;;;;;;;;;;5033073;28;20206;-77
2022/01/20 10:58:55;;;;;;;59.43;7.07;;;;;;;;;;5039641;28;20232;-75
2022/01/20 11:01:21;;;;;;;86.53;9.70;;;;;;;;;;5032971;28;20219;-74
2022/01/20 11:03:47;;;;;;;67.20;7.73;;;;;;;;;;5035134;28;20708;-74
2022/01/20 11:06:13;;;;;;;95.00;10.80;;;;;;;;;;5027731;28;21320;-73
2022/01/20 11:08:41;;;;;;;61.23;7.33;;;;;;;;;;5034058;28;20195;-72
2022/01/20 11:11:07;;;;;;;91.20;10.43;;;;;;;;;;5030673;28;20689;-72
2022/01/20 11:13:33;;;;;;;125.93;13.90;;;;;;;;;;5032150;28;20233;-73
2022/01/20 11:15:59;;;;;;;42.40;5.33;;;;;;;;;;5033161;28;20192;-73
2022/01/20 11:18:28;;;;;;;125.93;14.03;;;;;;;;;;5036844;28;20238;-74
2022/01/20 11:20:56;;;;;;;63.53;7.53;;;;;;;;;;5031726;28;20226;-74
2022/01/20 11:23:22;;;;;;;110.63;12.30;;;;;;;;;;5030421;28;20186;-72
2022/01/20 11:25:48;;;;;;;146.57;16.27;;;;;;;;;;5026979;28;20657;-75
2022/01/20 11:28:22;;;;;;;31.23;4.00;;;;;;;;;;5035029;28;20195;-74
2022/01/20 11:30:55;;;;;;;67.27;7.90;;;;;;;;;;5038860;28;20303;-72
2022/01/20 11:33:32;;;;;;;102.17;11.40;;;;;;;;;;5031990;28;20191;-71
2022/01/20 11:35:59;;;;;;;98.47;11.47;;;;;;;;;;5024017;28;20184;-72
2022/01/20 11:38:36;;;;;;;89.97;10.27;;;;;;;;;;5031375;28;20210;-72
2022/01/20 11:41:03;;;;;;;30.60;3.97;;;;;;;;;;5040159;28;20234;-73
2022/01/20 11:43:32;;;;;;;115.33;12.87;;;;;;;;;;5042599;28;20210;-73
2022/01/20 11:46:15;;;;;;;81.30;9.43;;;;;;;;;;5033373;28;20246;-71
2022/01/20 11:49:01;;;;;;;65.43;7.87;;;;;;;;;;5038672;28;20580;-72
2022/01/20 11:51:42;;;;;;;51.03;6.30;;;;;;;;;;5030859;28;20252;-72
2022/01/20 11:54:08;;;;;;;98.17;11.13;;;;;;;;;;5041810;28;20692;-72
2022/01/20 11:56:39;;;;;;;55.97;6.70;;;;;;;;;;5038114;28;20191;-73
2022/01/20 11:59:06;;;;;;;144.90;16.10;;;;;;;;;;5032382;28;20200;-73
2022/01/20 12:01:49;;;;;;;45.40;5.50;;;;;;;;;;5030397;28;20211;-73
2022/01/20 12:04:15;;;;;;;59.57;7.17;;;;;;;;;;5033164;28;20187;-72
2022/01/20 12:06:44;;;;;;;165.87;18.50;;;;;;;;;;5039470;28;20183;-70
2022/01/20 12:09:10;;;;;;;130.13;14.67;;;;;;;;;;5031323;28;21044;-71
2022/01/20 12:11:46;;;;;;;91.47;10.40;;;;;;;;;;5047007;28;20211;-73
2022/01/20 12:14:12;;;;;;;169.63;18.73;;;;;;;;;;5032072;28;20202;-71
2022/01/20 12:16:40;;;;;;;71.67;8.50;;;;;;;;;;5029496;28;20567;-71
2022/01/20 12:19:08;;;;;;;56.73;6.87;;;;;;;;;;5038939;28;20621;-71
2022/01/20 12:21:35;;;;;;;98.90;11.20;;;;;;;;;;5030757;28;21482;-73
2022/01/20 12:24:00;;;;;;;106.17;12.13;;;;;;;;;;5029160;28;20183;-68
2022/01/20 12:26:26;;;;;;;63.93;7.67;;;;;;;;;;5026947;28;20188;-68
2022/01/20 12:28:59;;;;;;;89.10;10.30;;;;;;;;;;5037161;28;20183;-68
2022/01/20 12:31:25;;;;;;;122.57;13.73;;;;;;;;;;5026875;28;20227;-68
2022/01/20 12:33:53;;;;;;;68.07;8.10;;;;;;;;;;5028546;28;20186;-68
2022/01/20 12:36:19;;;;;;;64.20;7.67;;;;;;;;;;5032060;28;20196;-68
2022/01/20 12:38:46;;;;;;;130.20;14.77;;;;;;;;;;5049130;28;20187;-67
2022/01/20 12:41:14;;;;;;;88.00;10.33;;;;;;;;;;5022374;28;20219;-70
2022/01/20 12:43:45;;;;;;;148.67;16.63;;;;;;;;;;5027855;28;21146;-71
2022/01/20 12:46:30;;;;;;;91.90;10.80;;;;;;;;;;5031411;28;20223;-76
2022/01/20 12:49:04;;;;;;;71.60;8.57;;;;;;;;;;5046887;28;20647;-72
2022/01/20 12:51:38;;;;;;;36.40;4.77;;;;;;;;;;5031509;28;20199;-71
2022/01/20 12:54:05;;;;;;;87.60;10.17;;;;;;;;;;5027842;28;20196;-71
2022/01/20 12:56:33;;;;;;;114.40;13.20;;;;;;;;;;5028783;28;20227;-71
2022/01/20 12:58:59;;;;;;;44.00;5.60;;;;;;;;;;5031819;28;20653;-72
2022/01/20 13:01:25;;;;;;;73.43;8.73;;;;;;;;;;5028734;28;20215;-72
2022/01/20 13:03:51;;;;;;;88.80;10.30;;;;;;;;;;5030553;28;20188;-72
2022/01/20 13:06:24;;;;;;;38.97;5.00;;;;;;;;;;5043252;28;20187;-72
2022/01/20 13:09:10;;;;;;;68.30;8.23;;;;;;;;;;5034117;28;20192;-71
2022/01/20 13:11:40;;;;;;;80.10;9.40;;;;;;;;;;5017744;28;20223;-71
2022/01/20 13:14:06;;;;;;;97.03;11.03;;;;;;;;;;5029532;28;20271;-72
2022/01/20 13:16:33;;;;;;;56.63;6.70;;;;;;;;;;5035927;28;20176;-71
2022/01/20 13:19:00;;;;;;;40.83;5.23;;;;;;;;;;5034390;28;20188;-70
2022/01/20 13:21:33;;;;;;;92.67;10.90;;;;;;;;;;5035481;28;20242;-71
2022/01/20 13:23:59;;;;;;;62.30;7.43;;;;;;;;;;5030216;28;20191;-69
2022/01/20 13:26:26;;;;;;;165.57;18.53;;;;;;;;;;5027835;28;20183;-70
2022/01/20 13:28:58;;;;;;;129.80;14.47;;;;;;;;;;5031170;28;20268;-71
2022/01/20 13:31:24;;;;;;;46.77;5.83;;;;;;;;;;5023002;28;20717;-70
2022/01/20 13:33:50;;;;;;;75.07;8.80;;;;;;;;;;5035912;28;20219;-71
2022/01/20 13:36:18;;;;;;;65.73;7.83;;;;;;;;;;5038835;28;20285;-70
2022/01/20 13:38:48;;;;;;;268.27;30.60;;;;;;;;;;5033371;28;20633;-72
2022/01/20 13:41:15;;;;;;;60.07;7.40;;;;;;;;;;5035195;28;20588;-71
2022/01/20 13:46:40;;;;;;;40.87;5.17;;;;;;;;;;5039986;28;20613;-71
2022/01/20 13:49:22;;;;;;;105.73;12.13;;;;;;;;;;5036520;28;20762;-72
2022/01/20 13:51:58;;;;;;;34.87;4.47;;;;;;;;;;5055576;28;20188;-71
2022/01/20 13:54:24;;;;;;;102.57;11.77;;;;;;;;;;5055805;28;20191;-71
2022/01/20 13:56:51;;;;;;;90.80;10.03;;;;;;;;;;5039348;28;20183;-71
2022/01/20 13:59:17;;;;;;;76.07;8.63;;;;;;;;;;5029940;28;20181;-72
2022/01/20 14:01:43;;;;;;;54.37;6.47;;;;;;;;;;5056740;28;20215;-71
2022/01/20 14:04:09;;;;;;;79.77;9.00;;;;;;;;;;5028732;28;20193;-71
2022/01/20 14:06:34;;;;;;;73.50;8.37;;;;;;;;;;5025233;28;21503;-71
2022/01/20 14:09:00;;;;;;;61.80;7.13;;;;;;;;;;5034753;28;20530;-72
2022/01/20 14:11:26;;;;;;;64.33;7.40;;;;;;;;;;5032867;28;20257;-72
2022/01/20 14:13:52;;;;;;;44.27;5.43;;;;;;;;;;5040098;28;20196;-72
2022/01/20 14:16:18;;;;;;;61.13;7.23;;;;;;;;;;5040198;28;20187;-72
2022/01/20 14:18:46;;;;;;;105.43;11.83;;;;;;;;;;5032865;28;20193;-73
2022/01/20 14:21:13;;;;;;;75.03;8.67;;;;;;;;;;5032588;28;20727;-72
2022/01/20 14:23:40;;;;;;;187.70;20.77;;;;;;;;;;5031823;28;20214;-72
2022/01/20 14:26:08;;;;;;;71.20;8.20;;;;;;;;;;5026693;28;20184;-73
2022/01/20 14:28:34;;;;;;;75.83;8.73;;;;;;;;;;5029069;28;20949;-72
2022/01/20 14:31:00;;;;;;;93.57;10.50;;;;;;;;;;5024747;28;20229;-72
2022/01/20 14:33:26;;;;;;;52.07;6.17;;;;;;;;;;5036828;28;20696;-72
2022/01/20 14:35:52;;;;;;;34.90;4.47;;;;;;;;;;5041563;28;20191;-71
2022/01/20 14:38:18;;;;;;;67.93;7.80;;;;;;;;;;5025554;28;23536;-74
2022/01/20 14:40:44;;;;;;;88.57;10.07;;;;;;;;;;5025523;28;20223;-71
2022/01/20 14:43:10;;;;;;;107.40;12.00;;;;;;;;;;5029208;28;20184;-72
2022/01/20 14:45:36;;;;;;;96.27;10.73;;;;;;;;;;5037060;28;20616;-72
2022/01/20 14:48:02;;;;;;;73.93;8.50;;;;;;;;;;5036361;28;20214;-72
2022/01/20 14:50:28;;;;;;;72.53;8.30;;;;;;;;;;5030244;28;20204;-72
2022/01/20 14:52:55;;;;;;;82.23;9.33;;;;;;;;;;5031253;28;20210;-72
2022/01/20 14:55:21;;;;;;;113.47;12.73;;;;;;;;;;5025264;28;20186;-72
2022/01/20 14:57:47;;;;;;;90.57;10.17;;;;;;;;;;5031087;28;20184;-71
2022/01/20 15:00:15;;;;;;;92.60;10.63;;;;;;;;;;5031650;28;20216;-71
2022/01/20 15:02:45;;;;;;;102.93;11.67;;;;;;;;;;5026843;28;20216;-71
2022/01/20 15:05:11;;;;;;;82.07;9.47;;;;;;;;;;5030736;28;20181;-71
2022/01/20 15:07:37;;;;;;;111.43;12.33;;;;;;;;;;5029192;28;20215;-71
2022/01/20 15:10:04;;;;;;;142.70;15.67;;;;;;;;;;5023121;28;20203;-71